Grantham, United Kingdom
Current Conditions -  °F | °C
As of 6:50 PM on Thursday 23 Oct 2014 (Local Time) from EGYD Reporting Station
Broken Clouds Broken Clouds  
Wind Chill: 14°   Ceiling: 3900
Heat Index: 14°   Visibility: 6mi
Dew Point: 12°   Wind: 15mph
Humidity: 88%   Direction: 190°S
Pressure: 29.94"   Gusts: NA
Location:  52.92°N, 0.64°W
Report Text: EGYD 231750Z AUTO 19013KT 9999 // FEW015/// BKN039/// 14/12 Q1014
Loading
Personal Weather Stations






























Interactive Weather Map
Tropical Storm Tracking
New forecast layout! Learn more

10-Day Weather Forecast

Advertisements
Track Severe Weather on mobile